createdAt,value
2017-12-03T00:00:14.282Z,25.23
2017-12-03T00:02:44.018Z,25.77
2017-12-03T00:05:13.664Z,23.90
2017-12-03T00:07:43.632Z,27.07
2017-12-03T00:10:13.346Z,24.07
2017-12-03T00:12:44.194Z,25.40
2017-12-03T00:15:14.806Z,26.07
2017-12-03T00:17:44.517Z,22.90
2017-12-03T00:20:15.688Z,22.60
2017-12-03T00:22:45.577Z,23.20
2017-12-03T00:25:16.102Z,16.93
2017-12-03T00:27:46.016Z,21.00
2017-12-03T00:30:16.072Z,19.17
2017-12-03T00:32:46.868Z,14.37
2017-12-03T00:35:17.007Z,16.63
2017-12-03T00:37:46.629Z,17.40
2017-12-03T00:40:17.876Z,14.10
2017-12-03T00:42:48.369Z,14.30
2017-12-03T00:45:18.623Z,15.13
2017-12-03T00:47:49.015Z,16.77
2017-12-03T00:50:18.940Z,13.23
2017-12-03T00:52:48.894Z,17.50
2017-12-03T00:55:18.555Z,13.97
2017-12-03T00:57:48.643Z,13.27
2017-12-03T01:00:18.393Z,13.30
2017-12-03T01:02:47.949Z,15.17
2017-12-03T01:05:18.710Z,12.10
2017-12-03T01:07:49.108Z,14.27
2017-12-03T01:10:18.993Z,11.73
2017-12-03T01:12:49.603Z,9.77
2017-12-03T01:15:19.307Z,10.77
2017-12-03T01:17:49.202Z,10.73
2017-12-03T01:20:19.179Z,9.20
2017-12-03T01:22:48.980Z,10.27
2017-12-03T01:25:19.533Z,10.10
2017-12-03T01:27:50.111Z,9.50
2017-12-03T01:30:19.810Z,8.90
2017-12-03T01:32:49.444Z,9.97
2017-12-03T01:35:18.960Z,10.00
2017-12-03T01:37:48.938Z,10.17
2017-12-03T01:40:18.647Z,10.07
2017-12-03T01:42:48.284Z,8.23
2017-12-03T01:45:18.799Z,9.10
2017-12-03T01:47:48.393Z,8.70
2017-12-03T01:50:18.044Z,9.33
2017-12-03T01:52:47.602Z,8.73
2017-12-03T01:55:17.517Z,8.93
2017-12-03T01:57:47.845Z,7.30
2017-12-03T02:00:17.971Z,7.70
2017-12-03T02:02:47.669Z,7.53
2017-12-03T02:05:17.315Z,6.47
2017-12-03T02:07:48.317Z,7.73
2017-12-03T02:10:17.905Z,6.90
2017-12-03T02:12:47.530Z,7.00
2017-12-03T02:15:17.448Z,8.33
2017-12-03T02:17:47.281Z,7.07
2017-12-03T02:20:18.235Z,7.27
2017-12-03T02:22:48.787Z,7.03
2017-12-03T02:25:18.543Z,8.83
2017-12-03T02:27:48.245Z,8.47
2017-12-03T02:30:17.892Z,8.70
2017-12-03T02:32:47.992Z,9.37
2017-12-03T02:35:18.601Z,7.43
2017-12-03T02:37:48.310Z,7.33
2017-12-03T02:40:18.828Z,7.70
2017-12-03T02:42:48.553Z,6.40
2017-12-03T02:45:18.390Z,7.33
2017-12-03T02:47:48.991Z,8.40
2017-12-03T02:50:18.710Z,7.63
2017-12-03T02:52:48.264Z,6.53
2017-12-03T02:55:17.841Z,7.77
2017-12-03T02:57:48.439Z,8.23
2017-12-03T03:00:18.080Z,7.90
2017-12-03T03:02:48.603Z,7.70
2017-12-03T03:05:18.236Z,8.20
2017-12-03T03:07:47.809Z,8.30
2017-12-03T03:10:18.730Z,9.00
2017-12-03T03:12:48.224Z,8.77
2017-12-03T03:15:17.963Z,8.87
2017-12-03T03:17:48.501Z,8.93
2017-12-03T03:20:18.285Z,8.53
2017-12-03T03:22:48.567Z,9.53
2017-12-03T03:25:18.242Z,9.63
2017-12-03T03:27:48.642Z,10.27
2017-12-03T03:30:18.353Z,11.23
2017-12-03T03:32:48.059Z,10.73
2017-12-03T03:35:17.689Z,10.40
2017-12-03T03:37:48.095Z,9.40
2017-12-03T03:40:18.279Z,11.90
2017-12-03T03:42:47.972Z,10.90
2017-12-03T03:45:17.841Z,10.13
2017-12-03T03:47:47.508Z,13.03
2017-12-03T03:50:17.051Z,13.17
2017-12-03T03:52:46.758Z,12.60
2017-12-03T03:55:16.600Z,12.40
2017-12-03T03:57:46.996Z,17.13
2017-12-03T04:00:20.181Z,13.47
2017-12-03T04:02:50.102Z,13.70
2017-12-03T04:05:20.015Z,16.53
2017-12-03T04:07:49.930Z,14.37
2017-12-03T04:10:19.572Z,21.00
2017-12-03T04:12:50.301Z,16.73
2017-12-03T04:15:20.905Z,17.87
2017-12-03T04:17:50.534Z,22.17
2017-12-03T04:20:20.250Z,21.17
2017-12-03T04:22:50.775Z,19.77
2017-12-03T04:25:20.480Z,31.97
2017-12-03T04:27:50.266Z,21.73
2017-12-03T04:30:19.853Z,25.53
2017-12-03T04:32:50.097Z,25.87
2017-12-03T04:35:19.693Z,29.60
2017-12-03T04:37:49.428Z,25.13
2017-12-03T04:40:19.147Z,31.03
2017-12-03T04:42:48.965Z,23.80
2017-12-03T04:45:18.598Z,30.37
2017-12-03T04:47:48.786Z,31.83
2017-12-03T04:50:18.472Z,29.70
2017-12-03T04:52:49.643Z,24.30
2017-12-03T04:55:20.192Z,29.77
2017-12-03T04:57:50.055Z,34.70
2017-12-03T05:00:19.684Z,25.00
2017-12-03T05:02:49.449Z,40.77
2017-12-03T05:05:19.303Z,31.13
2017-12-03T05:07:49.221Z,32.30
2017-12-03T05:10:19.218Z,29.87
2017-12-03T05:12:49.065Z,29.17
2017-12-03T05:15:19.484Z,28.60
2017-12-03T05:17:49.096Z,25.77
2017-12-03T05:20:19.521Z,28.47
2017-12-03T05:22:49.167Z,30.50
2017-12-03T05:25:19.029Z,36.83
2017-12-03T05:27:48.821Z,29.83
2017-12-03T05:30:18.736Z,34.43
2017-12-03T05:32:49.058Z,31.20
2017-12-03T05:35:18.768Z,26.80
2017-12-03T05:37:48.408Z,28.60
2017-12-03T05:40:18.017Z,23.37
2017-12-03T05:42:47.617Z,26.30
2017-12-03T05:45:18.017Z,34.23
2017-12-03T05:47:47.725Z,26.47
2017-12-03T05:50:17.276Z,27.20
2017-12-03T05:52:47.342Z,21.73
2017-12-03T05:55:16.997Z,31.70
2017-12-03T05:57:47.392Z,31.80
2017-12-03T06:00:17.090Z,24.90
2017-12-03T06:02:46.814Z,28.07
2017-12-03T06:05:17.128Z,29.83
2017-12-03T06:07:47.581Z,26.33
2017-12-03T06:10:17.267Z,29.93
2017-12-03T06:12:47.076Z,23.13
2017-12-03T06:15:16.918Z,29.77
2017-12-03T06:17:47.363Z,25.90
2017-12-03T06:20:17.181Z,25.37
2017-12-03T06:22:47.740Z,23.23
2017-12-03T06:25:17.385Z,17.20
2017-12-03T06:27:47.052Z,22.67
2017-12-03T06:30:16.973Z,17.37
2017-12-03T06:32:46.712Z,22.53
2017-12-03T06:35:16.435Z,21.93
2017-12-03T06:37:47.173Z,22.47
2017-12-03T06:40:16.954Z,20.37
2017-12-03T06:42:48.227Z,21.67
2017-12-03T06:45:19.436Z,16.40
2017-12-03T06:47:49.154Z,20.17
2017-12-03T06:50:18.981Z,13.10
2017-12-03T06:52:48.771Z,16.23
2017-12-03T06:55:18.686Z,16.73
2017-12-03T06:57:48.821Z,20.07
2017-12-03T07:00:19.124Z,18.47
2017-12-03T07:02:48.961Z,16.17
2017-12-03T07:05:18.675Z,13.57
2017-12-03T07:07:49.200Z,16.40
2017-12-03T07:10:18.798Z,14.40
2017-12-03T07:12:49.220Z,11.83
2017-12-03T07:15:19.165Z,17.13
2017-12-03T07:17:49.680Z,15.07
2017-12-03T07:20:19.466Z,17.47
2017-12-03T07:22:49.174Z,11.70
2017-12-03T07:25:18.889Z,11.70
2017-12-03T07:27:48.929Z,17.93
2017-12-03T07:30:18.572Z,11.20
2017-12-03T07:32:48.346Z,14.00
2017-12-03T07:35:18.542Z,17.23
2017-12-03T07:37:48.387Z,14.60
2017-12-03T07:40:18.308Z,10.20
2017-12-03T07:42:48.205Z,13.10
2017-12-03T07:45:18.708Z,12.83
2017-12-03T07:47:48.602Z,12.40
2017-12-03T07:50:18.436Z,11.67
2017-12-03T07:52:48.277Z,12.00
2017-12-03T07:55:18.796Z,15.20
2017-12-03T07:57:48.587Z,10.77
2017-12-03T08:00:18.420Z,15.23
2017-12-03T08:02:49.036Z,10.33
2017-12-03T08:05:18.943Z,11.17
2017-12-03T08:07:49.071Z,12.07
2017-12-03T08:10:18.772Z,11.03
2017-12-03T08:12:48.488Z,10.80
2017-12-03T08:15:18.320Z,11.50
2017-12-03T08:17:48.233Z,13.60
2017-12-03T08:20:18.771Z,11.50
2017-12-03T08:22:49.300Z,12.07
2017-12-03T08:25:19.846Z,11.20
2017-12-03T08:27:49.642Z,13.90
2017-12-03T08:30:19.314Z,11.00
2017-12-03T08:32:49.649Z,9.00
2017-12-03T08:35:20.902Z,8.90
2017-12-03T08:37:51.722Z,9.20
2017-12-03T08:40:21.504Z,8.03
2017-12-03T08:42:51.755Z,8.17
2017-12-03T08:45:21.462Z,8.83
2017-12-03T08:47:51.425Z,8.83
2017-12-03T08:50:21.420Z,8.73
2017-12-03T08:52:52.219Z,8.00
2017-12-03T08:55:22.552Z,7.73
2017-12-03T08:57:52.388Z,6.57
2017-12-03T09:00:22.381Z,6.83
2017-12-03T09:02:52.184Z,7.37
2017-12-03T09:05:22.335Z,7.20
2017-12-03T09:07:52.344Z,6.53
2017-12-03T09:10:22.560Z,11.10
2017-12-03T09:12:52.495Z,5.50
2017-12-03T09:15:23.100Z,5.30
2017-12-03T09:17:53.829Z,8.03
2017-12-03T09:20:23.672Z,7.57
2017-12-03T09:22:54.444Z,6.13
2017-12-03T09:25:24.391Z,7.97
2017-12-03T09:27:54.305Z,6.70
2017-12-03T09:30:24.236Z,7.10
2017-12-03T09:32:54.009Z,7.60
2017-12-03T09:35:24.122Z,7.47
2017-12-03T09:37:54.584Z,7.27
2017-12-03T09:40:24.694Z,7.57
2017-12-03T09:42:54.379Z,9.83
2017-12-03T09:45:24.319Z,6.50
2017-12-03T09:47:54.231Z,11.90
2017-12-03T09:50:24.362Z,14.50
2017-12-03T09:52:54.017Z,16.70
2017-12-03T09:55:23.777Z,16.37
2017-12-03T09:58:12.393Z,18.70
2017-12-03T10:01:02.912Z,15.70
2017-12-03T10:03:33.984Z,17.90
2017-12-03T10:06:05.206Z,12.50
2017-12-03T10:08:35.124Z,11.53
2017-12-03T10:11:05.589Z,16.73
2017-12-03T10:13:35.775Z,15.40
2017-12-03T10:16:07.061Z,15.70
2017-12-03T10:18:37.031Z,18.47
2017-12-03T10:21:07.152Z,11.37
2017-12-03T10:23:37.115Z,10.30
2017-12-03T10:26:07.314Z,10.70
2017-12-03T10:28:38.186Z,10.90
2017-12-03T10:31:08.783Z,9.47
2017-12-03T10:33:39.383Z,12.47
2017-12-03T10:36:09.501Z,8.77
2017-12-03T10:38:39.960Z,7.97
2017-12-03T10:41:10.763Z,10.17
2017-12-03T10:43:40.678Z,12.77
2017-12-03T10:46:10.525Z,7.20
2017-12-03T10:48:41.255Z,10.50
2017-12-03T10:51:11.931Z,5.73
2017-12-03T10:53:41.685Z,11.27
2017-12-03T10:56:12.445Z,7.40
2017-12-03T10:58:43.045Z,6.97
2017-12-03T11:01:13.733Z,9.43
2017-12-03T11:03:43.800Z,7.97
2017-12-03T11:06:15.562Z,4.60
2017-12-03T11:08:45.297Z,5.30
2017-12-03T11:11:15.262Z,10.27
2017-12-03T11:13:45.105Z,5.63
2017-12-03T11:16:15.708Z,6.80
2017-12-03T11:18:45.766Z,8.80
2017-12-03T11:21:16.899Z,9.40
2017-12-03T11:23:46.684Z,5.17
2017-12-03T11:26:17.938Z,11.23
2017-12-03T11:28:48.611Z,8.80
2017-12-03T11:31:18.476Z,4.43
2017-12-03T11:33:48.093Z,7.57
2017-12-03T11:36:18.092Z,8.40
2017-12-03T11:38:47.801Z,13.60
2017-12-03T11:41:17.718Z,8.63
2017-12-03T11:43:59.011Z,4.10
2017-12-03T11:46:37.932Z,2.70
2017-12-03T11:49:08.348Z,8.93
2017-12-03T11:51:38.084Z,9.67
2017-12-03T11:54:07.816Z,14.93
2017-12-03T11:56:37.598Z,4.97
2017-12-03T11:59:08.218Z,3.40
2017-12-03T12:01:38.049Z,18.43
2017-12-03T12:04:08.859Z,63.13
2017-12-03T12:06:38.569Z,42.40
2017-12-03T12:09:08.942Z,151.03
2017-12-03T12:11:38.930Z,140.57
2017-12-03T12:14:08.923Z,162.90
2017-12-03T12:16:38.760Z,160.80
2017-12-03T12:19:09.123Z,127.77
2017-12-03T12:21:39.889Z,148.37
2017-12-03T12:24:09.532Z,150.50
2017-12-03T12:26:40.018Z,129.23
2017-12-03T12:29:11.416Z,105.30
2017-12-03T12:31:42.086Z,98.90
2017-12-03T12:34:11.925Z,99.30
2017-12-03T12:36:42.048Z,100.50
2017-12-03T12:39:12.107Z,89.93
2017-12-03T12:41:42.023Z,79.97
2017-12-03T12:44:11.968Z,78.90
2017-12-03T12:46:42.046Z,80.03
2017-12-03T12:49:12.772Z,60.73
2017-12-03T12:51:43.578Z,71.17
2017-12-03T12:54:14.292Z,59.93
2017-12-03T12:56:44.363Z,59.07
2017-12-03T12:59:15.160Z,41.93
2017-12-03T13:01:44.929Z,42.17
2017-12-03T13:04:14.510Z,43.40
2017-12-03T13:06:45.473Z,44.50
2017-12-03T13:09:15.640Z,46.67
2017-12-03T13:11:45.484Z,25.90
2017-12-03T13:14:16.181Z,33.77
2017-12-03T13:16:46.328Z,27.13
2017-12-03T13:19:16.250Z,32.13
2017-12-03T13:21:46.371Z,32.00
2017-12-03T13:24:16.146Z,29.03
2017-12-03T13:26:46.265Z,23.93
2017-12-03T13:29:17.166Z,29.40
2017-12-03T13:31:46.921Z,30.57
2017-12-03T13:34:16.745Z,26.37
2017-12-03T13:36:47.254Z,24.63
2017-12-03T13:39:17.578Z,18.70
2017-12-03T13:41:47.494Z,22.80
2017-12-03T13:44:18.784Z,23.80
2017-12-03T13:46:48.773Z,24.00
2017-12-03T13:49:18.877Z,23.20
2017-12-03T13:51:49.209Z,23.60
2017-12-03T13:54:19.313Z,17.47
2017-12-03T13:56:49.288Z,19.50
2017-12-03T13:59:19.257Z,20.90
2017-12-03T14:01:49.886Z,15.03
2017-12-03T14:04:20.404Z,20.60
2017-12-03T14:06:50.228Z,21.60
2017-12-03T14:09:21.899Z,22.77
2017-12-03T14:11:51.819Z,13.10
2017-12-03T14:14:21.710Z,17.00
2017-12-03T14:16:52.391Z,17.87
2017-12-03T14:19:23.380Z,14.73
2017-12-03T14:21:53.428Z,14.33
2017-12-03T14:24:24.068Z,16.57
2017-12-03T14:26:55.919Z,9.80
2017-12-03T14:29:26.876Z,10.80
2017-12-03T14:31:56.778Z,8.43
2017-12-03T14:34:28.424Z,21.23
2017-12-03T14:36:58.450Z,39.57
2017-12-03T14:39:28.143Z,182.43
2017-12-03T14:41:58.118Z,167.40
2017-12-03T14:44:27.838Z,179.30
2017-12-03T14:46:57.889Z,164.07
2017-12-03T14:49:29.715Z,163.27
2017-12-03T14:52:00.457Z,141.33
2017-12-03T14:54:32.006Z,142.07
2017-12-03T14:57:04.375Z,111.07
2017-12-03T14:59:34.395Z,108.77
2017-12-03T15:02:04.407Z,98.33
2017-12-03T15:04:35.185Z,95.03
2017-12-03T15:07:05.669Z,76.07
2017-12-03T15:09:35.582Z,74.23
2017-12-03T15:12:05.703Z,60.03
2017-12-03T15:14:35.617Z,60.87
2017-12-03T15:17:05.859Z,62.57
2017-12-03T15:19:37.221Z,55.97
2017-12-03T15:22:08.128Z,59.60
2017-12-03T15:24:38.961Z,44.90
2017-12-03T15:27:10.402Z,42.17
2017-12-03T15:29:40.612Z,41.80
2017-12-03T15:32:10.749Z,43.70
2017-12-03T15:34:41.220Z,41.43
2017-12-03T15:37:11.295Z,29.57
2017-12-03T15:39:41.396Z,39.83
2017-12-03T15:42:11.640Z,35.70
2017-12-03T15:44:41.846Z,28.20
2017-12-03T15:47:12.697Z,23.10
2017-12-03T15:49:48.749Z,23.60
2017-12-03T15:52:21.121Z,23.90
2017-12-03T15:54:51.445Z,23.17
2017-12-03T15:57:22.311Z,18.97
2017-12-03T15:59:52.744Z,22.80
2017-12-03T16:02:24.570Z,19.57
2017-12-03T16:04:54.824Z,17.03
2017-12-03T16:07:24.956Z,19.80
2017-12-03T16:09:54.719Z,19.70
2017-12-03T16:12:24.711Z,17.40
2017-12-03T16:14:54.903Z,13.70
2017-12-03T16:17:25.134Z,17.63
2017-12-03T16:19:55.399Z,11.87
2017-12-03T16:22:25.520Z,9.90
2017-12-03T16:24:55.568Z,12.93
2017-12-03T16:27:25.861Z,18.23
2017-12-03T16:29:56.508Z,16.17
2017-12-03T16:32:27.668Z,12.70
2017-12-03T16:34:57.823Z,11.47
2017-12-03T16:37:28.078Z,9.00
2017-12-03T16:39:58.026Z,9.90
2017-12-03T16:42:29.724Z,16.00
2017-12-03T16:44:59.662Z,7.93
2017-12-03T16:47:29.581Z,8.37
2017-12-03T16:49:59.434Z,6.80
2017-12-03T16:52:29.413Z,8.00
2017-12-03T16:55:01.054Z,5.73
2017-12-03T16:57:31.237Z,12.13
2017-12-03T17:00:01.161Z,11.23
2017-12-03T17:02:31.241Z,6.87
2017-12-03T17:05:01.060Z,7.57
2017-12-03T17:07:30.834Z,9.40
2017-12-03T17:10:00.780Z,11.27
2017-12-03T17:12:32.568Z,10.83
2017-12-03T17:15:02.326Z,4.63
2017-12-03T17:17:31.963Z,17.27
2017-12-03T17:20:02.693Z,13.00
2017-12-03T17:22:32.886Z,9.40
2017-12-03T17:25:03.717Z,9.13
2017-12-03T17:27:34.145Z,14.20
2017-12-03T17:30:04.149Z,18.77
2017-12-03T17:32:34.118Z,7.00
2017-12-03T17:35:05.732Z,14.33
2017-12-03T17:37:35.590Z,13.10
2017-12-03T17:40:06.139Z,17.53
2017-12-03T17:42:36.088Z,9.57
2017-12-03T17:45:06.031Z,14.10
2017-12-03T17:47:36.121Z,10.40
2017-12-03T17:50:06.202Z,12.77
2017-12-03T17:52:36.356Z,7.90
2017-12-03T17:55:06.481Z,11.63
2017-12-03T17:57:37.284Z,7.03
2017-12-03T18:00:08.296Z,12.53
2017-12-03T18:02:38.473Z,7.73
2017-12-03T18:05:08.595Z,9.40
2017-12-03T18:07:38.542Z,12.93
2017-12-03T18:10:08.671Z,3.87
2017-12-03T18:12:38.477Z,9.90
2017-12-03T18:15:09.838Z,16.33
2017-12-03T18:17:40.968Z,9.10
2017-12-03T18:20:14.223Z,10.80
2017-12-03T18:22:45.688Z,4.13
2017-12-03T18:25:16.509Z,7.33
2017-12-03T18:27:46.519Z,5.30
2017-12-03T18:30:16.753Z,9.13
2017-12-03T18:32:46.616Z,10.47
2017-12-03T18:35:17.345Z,9.33
2017-12-03T18:37:47.483Z,7.90
2017-12-03T18:40:17.424Z,6.60
2017-12-03T18:42:48.158Z,5.23
2017-12-03T18:45:18.278Z,6.80
2017-12-03T18:47:48.398Z,7.53
2017-12-03T18:50:19.872Z,10.77
2017-12-03T18:52:51.304Z,5.53
2017-12-03T18:55:24.076Z,13.77
2017-12-03T18:57:56.628Z,10.73
2017-12-03T19:00:27.113Z,5.63
2017-12-03T19:02:58.748Z,8.33
2017-12-03T19:05:29.539Z,9.60
2017-12-03T19:08:00.000Z,5.87
2017-12-03T19:10:30.563Z,9.87
2017-12-03T19:13:00.444Z,11.27
2017-12-03T19:15:30.411Z,8.53
2017-12-03T19:18:01.391Z,6.20
2017-12-03T19:20:31.822Z,11.13
2017-12-03T19:23:02.282Z,5.20
2017-12-03T19:25:33.021Z,15.67
2017-12-03T19:28:04.024Z,7.97
2017-12-03T19:30:33.911Z,6.87
2017-12-03T19:33:03.850Z,5.37
2017-12-03T19:35:33.693Z,6.33
2017-12-03T19:38:04.225Z,6.10
2017-12-03T19:40:34.005Z,8.33
2017-12-03T19:43:04.176Z,4.80
2017-12-03T19:45:34.390Z,7.57
2017-12-03T19:48:05.072Z,6.90
2017-12-03T19:50:34.896Z,6.17
2017-12-03T19:53:04.942Z,13.53
2017-12-03T19:55:35.746Z,7.73
2017-12-03T19:58:07.841Z,9.03
2017-12-03T20:00:38.408Z,10.77
2017-12-03T20:03:08.460Z,10.20
2017-12-03T20:05:39.292Z,4.00
2017-12-03T20:08:09.125Z,5.33
2017-12-03T20:10:38.916Z,11.70
2017-12-03T20:13:10.465Z,4.07
2017-12-03T20:15:41.303Z,5.57
2017-12-03T20:18:11.321Z,7.23
2017-12-03T20:20:41.028Z,11.10
2017-12-03T20:23:10.943Z,7.07
2017-12-03T20:25:40.856Z,6.57
2017-12-03T20:28:11.179Z,7.30
2017-12-03T20:30:42.068Z,5.70
2017-12-03T20:33:11.979Z,12.37
2017-12-03T20:35:42.150Z,17.20
2017-12-03T20:38:12.113Z,13.90
2017-12-03T20:40:41.902Z,23.63
2017-12-03T20:43:14.102Z,19.67
2017-12-03T20:45:44.470Z,17.77
2017-12-03T20:48:14.660Z,23.23
2017-12-03T20:50:44.922Z,16.53
2017-12-03T20:53:15.331Z,15.20
2017-12-03T20:55:45.217Z,20.37
2017-12-03T20:58:15.272Z,17.13
2017-12-03T21:00:45.434Z,21.97
2017-12-03T21:03:15.510Z,12.50
2017-12-03T21:05:45.422Z,15.60
2017-12-03T21:08:16.727Z,16.30
2017-12-03T21:10:47.095Z,14.23
2017-12-03T21:13:17.162Z,13.00
2017-12-03T21:15:47.047Z,8.67
2017-12-03T21:18:17.801Z,7.60
2017-12-03T21:20:48.398Z,21.57
2017-12-03T21:23:18.920Z,13.93
2017-12-03T21:25:51.084Z,15.93
2017-12-03T21:28:21.006Z,10.00
2017-12-03T21:30:51.063Z,7.03
2017-12-03T21:33:21.851Z,14.30
2017-12-03T21:35:51.697Z,8.43
2017-12-03T21:38:22.642Z,6.13
2017-12-03T21:40:52.542Z,12.50
2017-12-03T21:43:24.272Z,11.33
2017-12-03T21:45:54.091Z,12.47
2017-12-03T21:48:23.741Z,8.30
2017-12-03T21:50:53.638Z,10.03
2017-12-03T21:53:24.444Z,9.33
2017-12-03T21:55:54.286Z,3.30
2017-12-03T21:58:24.883Z,5.03
2017-12-03T22:00:54.594Z,5.63
2017-12-03T22:03:24.236Z,5.80
2017-12-03T22:05:54.749Z,8.60
2017-12-03T22:08:26.129Z,11.67
2017-12-03T22:10:56.094Z,6.30
2017-12-03T22:13:26.426Z,9.63
2017-12-03T22:15:56.741Z,6.50
2017-12-03T22:18:26.655Z,9.60
2017-12-03T22:20:56.544Z,5.20
2017-12-03T22:23:27.876Z,4.37
2017-12-03T22:25:57.627Z,4.70
2017-12-03T22:28:27.864Z,4.60
2017-12-03T22:30:57.782Z,9.37
2017-12-03T22:33:28.598Z,5.50
2017-12-03T22:35:58.643Z,5.37
2017-12-03T22:38:29.257Z,17.07
2017-12-03T22:41:00.668Z,5.53
2017-12-03T22:43:31.942Z,6.73
2017-12-03T22:46:01.722Z,7.00
2017-12-03T22:48:31.953Z,11.63
2017-12-03T22:51:02.218Z,2.20
2017-12-03T22:53:32.761Z,8.53
2017-12-03T22:56:03.264Z,11.80
2017-12-03T22:58:32.856Z,11.37
2017-12-03T23:01:03.216Z,13.87
2017-12-03T23:03:32.861Z,5.00
2017-12-03T23:06:02.735Z,2.97
2017-12-03T23:08:33.664Z,7.23
2017-12-03T23:11:03.529Z,3.00
2017-12-03T23:13:33.368Z,6.70
2017-12-03T23:16:03.283Z,3.37
2017-12-03T23:18:33.730Z,6.07
2017-12-03T23:21:04.140Z,6.73
2017-12-03T23:23:33.977Z,5.20
2017-12-03T23:26:04.377Z,19.53
2017-12-03T23:28:35.108Z,3.43
2017-12-03T23:31:05.844Z,9.13
2017-12-03T23:33:35.963Z,1.77
2017-12-03T23:36:06.081Z,4.60
2017-12-03T23:38:35.790Z,7.33
2017-12-03T23:41:06.318Z,3.13
2017-12-03T23:43:36.232Z,9.87
2017-12-03T23:46:06.147Z,3.33
2017-12-03T23:48:36.015Z,7.83
2017-12-03T23:51:05.973Z,6.40
2017-12-03T23:53:37.522Z,11.37
2017-12-03T23:56:09.066Z,5.23
2017-12-03T23:58:39.705Z,3.70
